Pagrindinis puslapis
METAR-TAF:

METAR-TAF

Oro uostai :

Youngstown-Warren, Ohajas, Jungtinės Amerikos Valstijos

platuma: 41-15-16N, ilguma: 080-40-26W, Aukštis: 364 m

Dabartinis oras

Ataskaita buvo paskelbta 22 minutes, ne 21:51 UTC
Ramus vėjas
Temperatūra 18°C
Drėgmė 56%
Slėgis 1013 hPa
Matomumas: 16.1 km
Mažai debesys ne aukštis 5000 ft

METAR: KYNG 202151Z 00000KT 10SM FEW050 18/09 A2991 RMK AO2 SLP129 T01780094 $

Laikas: 18:13 (22:13 UTC)

Prognozė

Ataskaita buvo paskelbta 4 valandos ir 50 minutes, ne 17:23 UTC
Prognozė galioja nuo 20 metu 18 UTC su 21 metu 18 UTC
Vėjas 3 kt nuo kintamojo kryptimis
Matomumas: 10 km
Išsisklaidę debesys ne aukštis 15000 ft
Nuo 21 metu 1200 UTC
Vėjas 8 kt iš Rytų/Pietryčių
Matomumas: 10 km
Išsisklaidę debesys ne aukštis 15000 ft
Nuo 21 metu 1600 UTC
Vėjas 11 kt iš Rytų/Pietryčių
Matomumas: 10 km
Su prošvaistėmis ne aukštis 15000 ft

TAF: KYNG 201723Z 2018/2118 VRB03KT P6SM SCT150 FM211200 11008KT P6SM SCT150 FM211600 12011KT P6SM BKN150

Orai ataskaitas ir orų prognozės (METAR, TAF).

turimą stotys yra geltonos ir raudonos taškus žemėlapyje.

Perkelti pele per norėdami pamatyti stoties vardą.

Tada spustelėkite, norėdami matyti oro stebėjimo ir prognozės.

Norėdami pakeisti žemėlapį: spustelėkite ant žalios mygtukų su juodo kryžiaus žemyn,; žalią mygtuką su brūkšneliu, jei norite nutolinti; arba žalių rodyklių gretimoms žemėlapius.


METAR-TAF: